sensor_id;sensor_type;location;lat;lon;timestamp;P1;durP1;ratioP1;P2;durP2;ratioP2
44832;SDS011;30569;51.252;9.830;2023-04-15T00:00:15;7.57;;;4.77;;
44832;SDS011;30569;51.252;9.830;2023-04-15T00:02:41;7.43;;;4.50;;
44832;SDS011;30569;51.252;9.830;2023-04-15T00:05:08;6.17;;;3.70;;
44832;SDS011;30569;51.252;9.830;2023-04-15T00:07:34;6.53;;;4.13;;
44832;SDS011;30569;51.252;9.830;2023-04-15T00:10:00;7.30;;;4.50;;
44832;SDS011;30569;51.252;9.830;2023-04-15T00:12:26;8.50;;;4.63;;
44832;SDS011;30569;51.252;9.830;2023-04-15T00:14:52;6.83;;;4.33;;
44832;SDS011;30569;51.252;9.830;2023-04-15T00:17:18;6.93;;;4.03;;
44832;SDS011;30569;51.252;9.830;2023-04-15T00:19:44;6.50;;;3.90;;
44832;SDS011;30569;51.252;9.830;2023-04-15T00:22:10;6.73;;;4.17;;
44832;SDS011;30569;51.252;9.830;2023-04-15T00:24:36;7.17;;;3.87;;
44832;SDS011;30569;51.252;9.830;2023-04-15T00:27:02;6.53;;;4.40;;
44832;SDS011;30569;51.252;9.830;2023-04-15T00:29:28;8.27;;;4.43;;
44832;SDS011;30569;51.252;9.830;2023-04-15T00:31:54;8.70;;;6.00;;
44832;SDS011;30569;51.252;9.830;2023-04-15T00:34:21;8.57;;;4.77;;
44832;SDS011;30569;51.252;9.830;2023-04-15T00:36:47;7.87;;;4.73;;
44832;SDS011;30569;51.252;9.830;2023-04-15T00:39:14;7.60;;;4.67;;
44832;SDS011;30569;51.252;9.830;2023-04-15T00:41:40;7.20;;;4.87;;
44832;SDS011;30569;51.252;9.830;2023-04-15T00:44:07;9.30;;;5.30;;
44832;SDS011;30569;51.252;9.830;2023-04-15T00:46:36;7.47;;;4.70;;
44832;SDS011;30569;51.252;9.830;2023-04-15T00:49:04;7.43;;;4.93;;
44832;SDS011;30569;51.252;9.830;2023-04-15T00:51:31;9.37;;;5.27;;
44832;SDS011;30569;51.252;9.830;2023-04-15T00:54:06;8.27;;;4.50;;
44832;SDS011;30569;51.252;9.830;2023-04-15T00:56:35;8.70;;;4.70;;
44832;SDS011;30569;51.252;9.830;2023-04-15T00:59:03;8.63;;;5.33;;
44832;SDS011;30569;51.252;9.830;2023-04-15T01:01:30;9.67;;;5.87;;
44832;SDS011;30569;51.252;9.830;2023-04-15T01:03:56;10.17;;;5.43;;
44832;SDS011;30569;51.252;9.830;2023-04-15T01:06:23;8.53;;;5.70;;
44832;SDS011;30569;51.252;9.830;2023-04-15T01:08:49;8.23;;;5.37;;
44832;SDS011;30569;51.252;9.830;2023-04-15T01:11:15;8.97;;;5.63;;
44832;SDS011;30569;51.252;9.830;2023-04-15T01:13:41;7.67;;;5.00;;
44832;SDS011;30569;51.252;9.830;2023-04-15T01:16:07;8.90;;;5.60;;
44832;SDS011;30569;51.252;9.830;2023-04-15T01:18:34;9.60;;;6.37;;
44832;SDS011;30569;51.252;9.830;2023-04-15T01:21:04;7.80;;;5.17;;
44832;SDS011;30569;51.252;9.830;2023-04-15T01:23:31;9.43;;;5.07;;
44832;SDS011;30569;51.252;9.830;2023-04-15T01:25:58;7.53;;;4.97;;
44832;SDS011;30569;51.252;9.830;2023-04-15T01:28:24;8.17;;;5.30;;
44832;SDS011;30569;51.252;9.830;2023-04-15T01:31:04;7.83;;;5.37;;
44832;SDS011;30569;51.252;9.830;2023-04-15T01:33:33;8.70;;;4.77;;
44832;SDS011;30569;51.252;9.830;2023-04-15T01:35:59;7.97;;;5.03;;
44832;SDS011;30569;51.252;9.830;2023-04-15T01:38:25;9.87;;;4.63;;
44832;SDS011;30569;51.252;9.830;2023-04-15T01:40:52;10.03;;;4.87;;
44832;SDS011;30569;51.252;9.830;2023-04-15T01:43:17;8.93;;;4.83;;
44832;SDS011;30569;51.252;9.830;2023-04-15T01:45:43;7.17;;;4.50;;
44832;SDS011;30569;51.252;9.830;2023-04-15T01:48:09;9.03;;;4.40;;
44832;SDS011;30569;51.252;9.830;2023-04-15T01:50:36;7.43;;;5.30;;
44832;SDS011;30569;51.252;9.830;2023-04-15T01:53:02;8.17;;;5.17;;
44832;SDS011;30569;51.252;9.830;2023-04-15T01:55:28;7.30;;;5.20;;
44832;SDS011;30569;51.252;9.830;2023-04-15T01:57:54;7.67;;;4.97;;
44832;SDS011;30569;51.252;9.830;2023-04-15T02:00:21;7.97;;;5.03;;
44832;SDS011;30569;51.252;9.830;2023-04-15T02:02:47;9.20;;;5.20;;
44832;SDS011;30569;51.252;9.830;2023-04-15T02:05:13;12.50;;;5.10;;
44832;SDS011;30569;51.252;9.830;2023-04-15T02:07:40;9.57;;;5.43;;
44832;SDS011;30569;51.252;9.830;2023-04-15T02:10:07;7.00;;;4.77;;
44832;SDS011;30569;51.252;9.830;2023-04-15T02:12:34;7.20;;;4.93;;
44832;SDS011;30569;51.252;9.830;2023-04-15T02:15:00;6.40;;;4.70;;
44832;SDS011;30569;51.252;9.830;2023-04-15T02:17:25;7.60;;;4.63;;
44832;SDS011;30569;51.252;9.830;2023-04-15T02:19:52;8.83;;;4.40;;
44832;SDS011;30569;51.252;9.830;2023-04-15T02:22:18;7.03;;;4.93;;
44832;SDS011;30569;51.252;9.830;2023-04-15T02:24:44;13.70;;;7.37;;
44832;SDS011;30569;51.252;9.830;2023-04-15T02:27:14;9.80;;;6.90;;
44832;SDS011;30569;51.252;9.830;2023-04-15T02:29:40;11.93;;;6.17;;
44832;SDS011;30569;51.252;9.830;2023-04-15T02:32:05;10.67;;;5.83;;
44832;SDS011;30569;51.252;9.830;2023-04-15T02:34:32;8.20;;;5.43;;
44832;SDS011;30569;51.252;9.830;2023-04-15T02:36:58;8.20;;;5.30;;
44832;SDS011;30569;51.252;9.830;2023-04-15T02:39:23;7.97;;;4.67;;
44832;SDS011;30569;51.252;9.830;2023-04-15T02:41:49;9.47;;;5.73;;
44832;SDS011;30569;51.252;9.830;2023-04-15T02:44:16;9.50;;;5.47;;
44832;SDS011;30569;51.252;9.830;2023-04-15T02:46:44;9.63;;;5.80;;
44832;SDS011;30569;51.252;9.830;2023-04-15T02:49:16;9.53;;;5.90;;
44832;SDS011;30569;51.252;9.830;2023-04-15T02:51:42;9.83;;;5.70;;
44832;SDS011;30569;51.252;9.830;2023-04-15T02:54:08;10.77;;;5.53;;
44832;SDS011;30569;51.252;9.830;2023-04-15T02:56:33;8.03;;;5.67;;
44832;SDS011;30569;51.252;9.830;2023-04-15T02:58:59;9.00;;;5.87;;
44832;SDS011;30569;51.252;9.830;2023-04-15T03:01:25;12.40;;;7.23;;
44832;SDS011;30569;51.252;9.830;2023-04-15T03:03:51;12.33;;;7.80;;
44832;SDS011;30569;51.252;9.830;2023-04-15T03:06:17;12.83;;;7.83;;
44832;SDS011;30569;51.252;9.830;2023-04-15T03:08:43;15.00;;;8.53;;
44832;SDS011;30569;51.252;9.830;2023-04-15T03:11:09;14.50;;;8.17;;
44832;SDS011;30569;51.252;9.830;2023-04-15T03:13:36;14.93;;;9.00;;
44832;SDS011;30569;51.252;9.830;2023-04-15T03:16:03;14.17;;;8.93;;
44832;SDS011;30569;51.252;9.830;2023-04-15T03:18:29;13.73;;;8.43;;
44832;SDS011;30569;51.252;9.830;2023-04-15T03:20:55;15.73;;;9.60;;
44832;SDS011;30569;51.252;9.830;2023-04-15T03:23:21;16.20;;;9.50;;
44832;SDS011;30569;51.252;9.830;2023-04-15T03:25:47;14.37;;;9.00;;
44832;SDS011;30569;51.252;9.830;2023-04-15T03:28:12;17.20;;;10.10;;
44832;SDS011;30569;51.252;9.830;2023-04-15T03:30:38;21.87;;;13.73;;
44832;SDS011;30569;51.252;9.830;2023-04-15T03:33:04;18.50;;;12.00;;
44832;SDS011;30569;51.252;9.830;2023-04-15T03:35:30;15.73;;;11.07;;
44832;SDS011;30569;51.252;9.830;2023-04-15T03:37:56;18.10;;;10.00;;
44832;SDS011;30569;51.252;9.830;2023-04-15T03:40:22;16.77;;;10.03;;
44832;SDS011;30569;51.252;9.830;2023-04-15T03:42:48;17.67;;;10.77;;
44832;SDS011;30569;51.252;9.830;2023-04-15T03:45:14;15.63;;;9.90;;
44832;SDS011;30569;51.252;9.830;2023-04-15T03:47:40;15.00;;;9.27;;
44832;SDS011;30569;51.252;9.830;2023-04-15T03:50:06;14.13;;;9.37;;
44832;SDS011;30569;51.252;9.830;2023-04-15T03:52:32;14.30;;;9.07;;
44832;SDS011;30569;51.252;9.830;2023-04-15T03:54:57;12.90;;;9.13;;
44832;SDS011;30569;51.252;9.830;2023-04-15T03:57:23;18.13;;;9.13;;
44832;SDS011;30569;51.252;9.830;2023-04-15T03:59:49;16.07;;;9.73;;
44832;SDS011;30569;51.252;9.830;2023-04-15T04:02:15;14.60;;;9.90;;
44832;SDS011;30569;51.252;9.830;2023-04-15T04:04:41;16.10;;;8.77;;
44832;SDS011;30569;51.252;9.830;2023-04-15T04:07:07;13.57;;;9.23;;
44832;SDS011;30569;51.252;9.830;2023-04-15T04:09:33;16.43;;;10.10;;
44832;SDS011;30569;51.252;9.830;2023-04-15T04:12:00;16.17;;;10.53;;
44832;SDS011;30569;51.252;9.830;2023-04-15T04:14:26;15.43;;;10.70;;
44832;SDS011;30569;51.252;9.830;2023-04-15T04:16:53;14.07;;;9.87;;
44832;SDS011;30569;51.252;9.830;2023-04-15T04:19:20;14.73;;;10.03;;
44832;SDS011;30569;51.252;9.830;2023-04-15T04:21:46;15.23;;;10.43;;
44832;SDS011;30569;51.252;9.830;2023-04-15T04:24:12;15.13;;;10.67;;
44832;SDS011;30569;51.252;9.830;2023-04-15T04:26:37;14.40;;;10.60;;
44832;SDS011;30569;51.252;9.830;2023-04-15T04:29:03;13.37;;;9.57;;
44832;SDS011;30569;51.252;9.830;2023-04-15T04:31:29;14.97;;;10.30;;
44832;SDS011;30569;51.252;9.830;2023-04-15T04:33:55;13.77;;;10.20;;
44832;SDS011;30569;51.252;9.830;2023-04-15T04:36:21;15.00;;;10.70;;
44832;SDS011;30569;51.252;9.830;2023-04-15T04:38:46;14.47;;;10.80;;
44832;SDS011;30569;51.252;9.830;2023-04-15T04:41:12;16.23;;;11.03;;
44832;SDS011;30569;51.252;9.830;2023-04-15T04:43:38;15.00;;;10.43;;
44832;SDS011;30569;51.252;9.830;2023-04-15T04:46:04;14.60;;;10.23;;
44832;SDS011;30569;51.252;9.830;2023-04-15T04:48:30;13.60;;;9.90;;
44832;SDS011;30569;51.252;9.830;2023-04-15T04:50:56;16.37;;;10.63;;
44832;SDS011;30569;51.252;9.830;2023-04-15T04:53:21;14.77;;;10.37;;
44832;SDS011;30569;51.252;9.830;2023-04-15T04:55:47;13.53;;;10.10;;
44832;SDS011;30569;51.252;9.830;2023-04-15T04:58:13;14.73;;;9.93;;
44832;SDS011;30569;51.252;9.830;2023-04-15T05:00:39;17.93;;;10.80;;
44832;SDS011;30569;51.252;9.830;2023-04-15T05:03:06;15.43;;;11.05;;
44832;SDS011;30569;51.252;9.830;2023-04-15T05:05:32;15.30;;;10.13;;
44832;SDS011;30569;51.252;9.830;2023-04-15T05:07:59;13.70;;;9.77;;
44832;SDS011;30569;51.252;9.830;2023-04-15T05:10:25;14.20;;;9.60;;
44832;SDS011;30569;51.252;9.830;2023-04-15T05:12:51;12.77;;;9.53;;
44832;SDS011;30569;51.252;9.830;2023-04-15T05:15:17;15.13;;;10.45;;
44832;SDS011;30569;51.252;9.830;2023-04-15T05:17:42;13.18;;;9.85;;
44832;SDS011;30569;51.252;9.830;2023-04-15T05:20:09;13.77;;;9.65;;
44832;SDS011;30569;51.252;9.830;2023-04-15T05:22:35;13.95;;;9.80;;
44832;SDS011;30569;51.252;9.830;2023-04-15T05:25:01;14.10;;;10.23;;
44832;SDS011;30569;51.252;9.830;2023-04-15T05:27:27;14.40;;;9.65;;
44832;SDS011;30569;51.252;9.830;2023-04-15T05:29:53;14.90;;;10.20;;
44832;SDS011;30569;51.252;9.830;2023-04-15T05:32:20;14.32;;;10.02;;
44832;SDS011;30569;51.252;9.830;2023-04-15T05:34:46;14.63;;;10.55;;
44832;SDS011;30569;51.252;9.830;2023-04-15T05:37:12;14.90;;;9.45;;
44832;SDS011;30569;51.252;9.830;2023-04-15T05:39:38;13.13;;;9.32;;
44832;SDS011;30569;51.252;9.830;2023-04-15T05:42:03;15.25;;;9.90;;
44832;SDS011;30569;51.252;9.830;2023-04-15T05:44:30;15.13;;;11.00;;
44832;SDS011;30569;51.252;9.830;2023-04-15T05:46:55;15.75;;;10.05;;
44832;SDS011;30569;51.252;9.830;2023-04-15T05:49:22;14.30;;;10.30;;
44832;SDS011;30569;51.252;9.830;2023-04-15T05:51:48;15.98;;;10.32;;
44832;SDS011;30569;51.252;9.830;2023-04-15T05:54:14;14.45;;;10.40;;
44832;SDS011;30569;51.252;9.830;2023-04-15T05:56:40;13.05;;;9.35;;
44832;SDS011;30569;51.252;9.830;2023-04-15T05:59:05;13.05;;;9.05;;
44832;SDS011;30569;51.252;9.830;2023-04-15T06:01:32;14.13;;;9.88;;
44832;SDS011;30569;51.252;9.830;2023-04-15T06:03:58;15.73;;;10.07;;
44832;SDS011;30569;51.252;9.830;2023-04-15T06:06:24;13.40;;;9.27;;
44832;SDS011;30569;51.252;9.830;2023-04-15T06:08:51;13.93;;;8.80;;
44832;SDS011;30569;51.252;9.830;2023-04-15T06:11:17;13.07;;;9.13;;
44832;SDS011;30569;51.252;9.830;2023-04-15T06:13:43;10.05;;;7.65;;
44832;SDS011;30569;51.252;9.830;2023-04-15T06:16:08;13.50;;;8.85;;
44832;SDS011;30569;51.252;9.830;2023-04-15T06:18:34;12.05;;;8.48;;
44832;SDS011;30569;51.252;9.830;2023-04-15T06:20:59;11.95;;;8.50;;
44832;SDS011;30569;51.252;9.830;2023-04-15T06:23:25;12.07;;;8.02;;
44832;SDS011;30569;51.252;9.830;2023-04-15T06:25:51;12.43;;;8.55;;
44832;SDS011;30569;51.252;9.830;2023-04-15T06:28:17;11.75;;;8.73;;
44832;SDS011;30569;51.252;9.830;2023-04-15T06:30:43;14.75;;;8.70;;
44832;SDS011;30569;51.252;9.830;2023-04-15T06:33:09;10.68;;;8.00;;
44832;SDS011;30569;51.252;9.830;2023-04-15T06:35:35;12.10;;;7.45;;
44832;SDS011;30569;51.252;9.830;2023-04-15T06:38:00;12.32;;;7.53;;
44832;SDS011;30569;51.252;9.830;2023-04-15T06:40:26;11.30;;;8.00;;
44832;SDS011;30569;51.252;9.830;2023-04-15T06:42:52;11.80;;;7.97;;
44832;SDS011;30569;51.252;9.830;2023-04-15T06:45:17;12.65;;;7.60;;
44832;SDS011;30569;51.252;9.830;2023-04-15T06:47:43;12.60;;;7.30;;
44832;SDS011;30569;51.252;9.830;2023-04-15T06:50:09;10.50;;;7.13;;
44832;SDS011;30569;51.252;9.830;2023-04-15T06:52:35;11.15;;;6.97;;
44832;SDS011;30569;51.252;9.830;2023-04-15T06:55:03;10.00;;;7.05;;
44832;SDS011;30569;51.252;9.830;2023-04-15T06:57:29;10.50;;;6.80;;
44832;SDS011;30569;51.252;9.830;2023-04-15T06:59:54;10.80;;;7.43;;
44832;SDS011;30569;51.252;9.830;2023-04-15T07:02:20;11.10;;;6.70;;
44832;SDS011;30569;51.252;9.830;2023-04-15T07:04:46;10.13;;;6.75;;
44832;SDS011;30569;51.252;9.830;2023-04-15T07:07:11;10.15;;;6.63;;
44832;SDS011;30569;51.252;9.830;2023-04-15T07:09:37;8.95;;;6.18;;
44832;SDS011;30569;51.252;9.830;2023-04-15T07:12:03;13.75;;;6.10;;
44832;SDS011;30569;51.252;9.830;2023-04-15T07:14:29;8.75;;;6.28;;
44832;SDS011;30569;51.252;9.830;2023-04-15T07:16:55;9.30;;;5.90;;
44832;SDS011;30569;51.252;9.830;2023-04-15T07:19:21;9.43;;;6.07;;
44832;SDS011;30569;51.252;9.830;2023-04-15T07:21:47;8.60;;;4.80;;
44832;SDS011;30569;51.252;9.830;2023-04-15T07:24:13;8.48;;;5.68;;
44832;SDS011;30569;51.252;9.830;2023-04-15T07:26:42;7.32;;;5.13;;
44832;SDS011;30569;51.252;9.830;2023-04-15T07:29:08;13.95;;;8.85;;
44832;SDS011;30569;51.252;9.830;2023-04-15T07:31:34;14.63;;;9.63;;
44832;SDS011;30569;51.252;9.830;2023-04-15T07:34:01;12.02;;;6.88;;
44832;SDS011;30569;51.252;9.830;2023-04-15T07:36:28;13.02;;;8.27;;
44832;SDS011;30569;51.252;9.830;2023-04-15T07:38:54;12.68;;;7.57;;
44832;SDS011;30569;51.252;9.830;2023-04-15T07:41:20;11.15;;;6.10;;
44832;SDS011;30569;51.252;9.830;2023-04-15T07:43:46;8.85;;;5.38;;
44832;SDS011;30569;51.252;9.830;2023-04-15T07:46:13;8.13;;;4.65;;
44832;SDS011;30569;51.252;9.830;2023-04-15T07:48:39;8.20;;;5.35;;
44832;SDS011;30569;51.252;9.830;2023-04-15T07:51:05;7.22;;;4.70;;
44832;SDS011;30569;51.252;9.830;2023-04-15T07:53:31;7.85;;;5.28;;
44832;SDS011;30569;51.252;9.830;2023-04-15T07:55:57;10.50;;;5.13;;
44832;SDS011;30569;51.252;9.830;2023-04-15T07:58:23;7.65;;;4.70;;
44832;SDS011;30569;51.252;9.830;2023-04-15T08:00:50;6.88;;;4.65;;
44832;SDS011;30569;51.252;9.830;2023-04-15T08:03:16;8.32;;;4.78;;
44832;SDS011;30569;51.252;9.830;2023-04-15T08:05:42;7.05;;;4.82;;
44832;SDS011;30569;51.252;9.830;2023-04-15T08:08:08;8.77;;;5.05;;
44832;SDS011;30569;51.252;9.830;2023-04-15T08:10:34;8.68;;;5.07;;
44832;SDS011;30569;51.252;9.830;2023-04-15T08:13:00;6.88;;;4.90;;
44832;SDS011;30569;51.252;9.830;2023-04-15T08:15:27;7.38;;;4.78;;
44832;SDS011;30569;51.252;9.830;2023-04-15T08:17:52;7.68;;;5.00;;
44832;SDS011;30569;51.252;9.830;2023-04-15T08:20:18;7.25;;;4.80;;
44832;SDS011;30569;51.252;9.830;2023-04-15T08:22:44;10.05;;;5.20;;
44832;SDS011;30569;51.252;9.830;2023-04-15T08:25:11;7.65;;;5.13;;
44832;SDS011;30569;51.252;9.830;2023-04-15T08:27:37;7.70;;;5.05;;
44832;SDS011;30569;51.252;9.830;2023-04-15T08:30:03;8.63;;;5.38;;
44832;SDS011;30569;51.252;9.830;2023-04-15T08:32:29;10.25;;;5.75;;
44832;SDS011;30569;51.252;9.830;2023-04-15T08:34:54;7.60;;;5.20;;
44832;SDS011;30569;51.252;9.830;2023-04-15T08:37:20;9.00;;;5.30;;
44832;SDS011;30569;51.252;9.830;2023-04-15T08:39:46;9.25;;;5.63;;
44832;SDS011;30569;51.252;9.830;2023-04-15T08:42:16;9.32;;;6.15;;
44832;SDS011;30569;51.252;9.830;2023-04-15T08:44:43;8.98;;;6.03;;
44832;SDS011;30569;51.252;9.830;2023-04-15T08:47:12;8.73;;;5.60;;
44832;SDS011;30569;51.252;9.830;2023-04-15T08:49:39;9.80;;;6.47;;
44832;SDS011;30569;51.252;9.830;2023-04-15T08:52:07;8.00;;;5.63;;
44832;SDS011;30569;51.252;9.830;2023-04-15T08:54:33;8.18;;;5.93;;
44832;SDS011;30569;51.252;9.830;2023-04-15T08:57:00;7.00;;;5.03;;
44832;SDS011;30569;51.252;9.830;2023-04-15T08:59:26;7.07;;;4.60;;
44832;SDS011;30569;51.252;9.830;2023-04-15T09:01:54;7.13;;;4.70;;
44832;SDS011;30569;51.252;9.830;2023-04-15T09:04:22;6.43;;;4.47;;
44832;SDS011;30569;51.252;9.830;2023-04-15T09:06:47;7.75;;;4.22;;
44832;SDS011;30569;51.252;9.830;2023-04-15T09:09:13;6.95;;;4.38;;
44832;SDS011;30569;51.252;9.830;2023-04-15T09:11:39;6.43;;;4.35;;
44832;SDS011;30569;51.252;9.830;2023-04-15T09:14:04;7.03;;;4.50;;
44832;SDS011;30569;51.252;9.830;2023-04-15T09:16:30;7.22;;;4.45;;
44832;SDS011;30569;51.252;9.830;2023-04-15T09:18:56;5.57;;;3.70;;
44832;SDS011;30569;51.252;9.830;2023-04-15T09:21:22;6.22;;;3.88;;
44832;SDS011;30569;51.252;9.830;2023-04-15T09:23:55;7.85;;;3.88;;
44832;SDS011;30569;51.252;9.830;2023-04-15T09:26:36;6.88;;;4.18;;
44832;SDS011;30569;51.252;9.830;2023-04-15T09:29:07;6.22;;;3.70;;
44832;SDS011;30569;51.252;9.830;2023-04-15T09:31:34;6.40;;;4.30;;
44832;SDS011;30569;51.252;9.830;2023-04-15T09:34:01;6.07;;;3.72;;
44832;SDS011;30569;51.252;9.830;2023-04-15T09:36:27;6.50;;;4.00;;
44832;SDS011;30569;51.252;9.830;2023-04-15T09:38:59;5.82;;;3.58;;
44832;SDS011;30569;51.252;9.830;2023-04-15T09:41:25;6.45;;;3.97;;
44832;SDS011;30569;51.252;9.830;2023-04-15T09:43:52;6.30;;;3.67;;
44832;SDS011;30569;51.252;9.830;2023-04-15T09:46:18;6.15;;;3.72;;
44832;SDS011;30569;51.252;9.830;2023-04-15T09:48:44;6.03;;;3.80;;
44832;SDS011;30569;51.252;9.830;2023-04-15T09:51:10;5.85;;;3.67;;
44832;SDS011;30569;51.252;9.830;2023-04-15T09:53:36;7.25;;;3.85;;
44832;SDS011;30569;51.252;9.830;2023-04-15T09:56:05;5.88;;;3.90;;
44832;SDS011;30569;51.252;9.830;2023-04-15T09:58:33;5.70;;;3.80;;
44832;SDS011;30569;51.252;9.830;2023-04-15T10:01:02;6.05;;;3.47;;
44832;SDS011;30569;51.252;9.830;2023-04-15T10:03:29;5.43;;;3.40;;
44832;SDS011;30569;51.252;9.830;2023-04-15T10:05:57;6.05;;;3.70;;
44832;SDS011;30569;51.252;9.830;2023-04-15T10:08:25;6.05;;;3.67;;
44832;SDS011;30569;51.252;9.830;2023-04-15T10:10:52;6.38;;;4.07;;
44832;SDS011;30569;51.252;9.830;2023-04-15T10:13:22;5.68;;;3.50;;
44832;SDS011;30569;51.252;9.830;2023-04-15T10:15:50;6.18;;;3.22;;
44832;SDS011;30569;51.252;9.830;2023-04-15T10:18:21;5.30;;;3.22;;
44832;SDS011;30569;51.252;9.830;2023-04-15T10:20:49;6.43;;;3.38;;
44832;SDS011;30569;51.252;9.830;2023-04-15T10:23:15;5.68;;;3.53;;
44832;SDS011;30569;51.252;9.830;2023-04-15T10:25:43;5.15;;;3.08;;
44832;SDS011;30569;51.252;9.830;2023-04-15T10:28:10;5.22;;;3.03;;
44832;SDS011;30569;51.252;9.830;2023-04-15T10:30:36;5.28;;;2.97;;
44832;SDS011;30569;51.252;9.830;2023-04-15T10:33:02;4.80;;;2.60;;
44832;SDS011;30569;51.252;9.830;2023-04-15T10:35:29;4.80;;;2.75;;
44832;SDS011;30569;51.252;9.830;2023-04-15T10:37:57;4.47;;;2.55;;
44832;SDS011;30569;51.252;9.830;2023-04-15T10:40:29;5.57;;;2.60;;
44832;SDS011;30569;51.252;9.830;2023-04-15T10:43:02;4.57;;;2.30;;
44832;SDS011;30569;51.252;9.830;2023-04-15T10:45:31;4.63;;;2.70;;
44832;SDS011;30569;51.252;9.830;2023-04-15T10:48:00;5.05;;;2.95;;
44832;SDS011;30569;51.252;9.830;2023-04-15T10:50:27;4.60;;;2.50;;
44832;SDS011;30569;51.252;9.830;2023-04-15T10:52:55;6.30;;;2.90;;
44832;SDS011;30569;51.252;9.830;2023-04-15T10:55:22;4.20;;;2.63;;
44832;SDS011;30569;51.252;9.830;2023-04-15T10:57:53;4.57;;;2.63;;
44832;SDS011;30569;51.252;9.830;2023-04-15T11:00:20;4.13;;;2.28;;
44832;SDS011;30569;51.252;9.830;2023-04-15T11:05:19;4.35;;;2.25;;
44832;SDS011;30569;51.252;9.830;2023-04-15T11:07:47;4.28;;;2.20;;
44832;SDS011;30569;51.252;9.830;2023-04-15T11:12:55;5.63;;;2.30;;
44832;SDS011;30569;51.252;9.830;2023-04-15T11:15:33;4.65;;;2.15;;
44832;SDS011;30569;51.252;9.830;2023-04-15T11:18:08;3.97;;;2.05;;
44832;SDS011;30569;51.252;9.830;2023-04-15T11:20:35;4.25;;;2.10;;
44832;SDS011;30569;51.252;9.830;2023-04-15T11:23:01;4.10;;;2.25;;
44832;SDS011;30569;51.252;9.830;2023-04-15T11:25:28;3.20;;;1.83;;
44832;SDS011;30569;51.252;9.830;2023-04-15T11:27:55;3.90;;;2.00;;
44832;SDS011;30569;51.252;9.830;2023-04-15T11:30:24;3.35;;;1.80;;
44832;SDS011;30569;51.252;9.830;2023-04-15T11:32:51;6.60;;;4.28;;
44832;SDS011;30569;51.252;9.830;2023-04-15T11:35:19;3.63;;;2.00;;
44832;SDS011;30569;51.252;9.830;2023-04-15T11:37:45;3.88;;;2.08;;
44832;SDS011;30569;51.252;9.830;2023-04-15T11:40:12;5.10;;;3.08;;
44832;SDS011;30569;51.252;9.830;2023-04-15T11:42:39;3.83;;;2.08;;
44832;SDS011;30569;51.252;9.830;2023-04-15T11:45:06;3.83;;;2.10;;
44832;SDS011;30569;51.252;9.830;2023-04-15T11:47:36;3.65;;;1.83;;
44832;SDS011;30569;51.252;9.830;2023-04-15T11:50:21;4.22;;;2.30;;
44832;SDS011;30569;51.252;9.830;2023-04-15T11:55:23;3.72;;;1.90;;
44832;SDS011;30569;51.252;9.830;2023-04-15T11:57:49;3.70;;;2.20;;
44832;SDS011;30569;51.252;9.830;2023-04-15T12:00:29;4.95;;;2.00;;
44832;SDS011;30569;51.252;9.830;2023-04-15T12:03:10;3.80;;;2.10;;
44832;SDS011;30569;51.252;9.830;2023-04-15T12:06:12;3.78;;;2.15;;
44832;SDS011;30569;51.252;9.830;2023-04-15T12:11:41;3.83;;;2.10;;
44832;SDS011;30569;51.252;9.830;2023-04-15T12:16:35;4.38;;;2.38;;
44832;SDS011;30569;51.252;9.830;2023-04-15T12:19:09;3.80;;;2.10;;
44832;SDS011;30569;51.252;9.830;2023-04-15T12:21:37;4.50;;;2.60;;
44832;SDS011;30569;51.252;9.830;2023-04-15T12:24:08;4.65;;;2.75;;
44832;SDS011;30569;51.252;9.830;2023-04-15T12:26:43;5.10;;;3.30;;
44832;SDS011;30569;51.252;9.830;2023-04-15T12:29:11;4.30;;;2.63;;
44832;SDS011;30569;51.252;9.830;2023-04-15T12:31:45;4.28;;;2.58;;
44832;SDS011;30569;51.252;9.830;2023-04-15T12:34:13;5.57;;;3.20;;
44832;SDS011;30569;51.252;9.830;2023-04-15T12:36:39;4.90;;;2.72;;
44832;SDS011;30569;51.252;9.830;2023-04-15T12:39:06;4.78;;;2.70;;
44832;SDS011;30569;51.252;9.830;2023-04-15T12:41:31;4.65;;;2.85;;
44832;SDS011;30569;51.252;9.830;2023-04-15T12:43:58;4.85;;;2.83;;
44832;SDS011;30569;51.252;9.830;2023-04-15T12:46:24;5.38;;;3.03;;
44832;SDS011;30569;51.252;9.830;2023-04-15T12:48:51;6.05;;;3.00;;
44832;SDS011;30569;51.252;9.830;2023-04-15T12:51:17;6.07;;;3.45;;
44832;SDS011;30569;51.252;9.830;2023-04-15T12:53:45;4.75;;;2.88;;
44832;SDS011;30569;51.252;9.830;2023-04-15T12:56:11;5.00;;;2.80;;
44832;SDS011;30569;51.252;9.830;2023-04-15T12:58:37;4.55;;;2.78;;
44832;SDS011;30569;51.252;9.830;2023-04-15T13:01:03;5.85;;;2.50;;
44832;SDS011;30569;51.252;9.830;2023-04-15T13:03:30;5.07;;;2.65;;
44832;SDS011;30569;51.252;9.830;2023-04-15T13:05:56;4.93;;;3.10;;
44832;SDS011;30569;51.252;9.830;2023-04-15T13:08:23;5.20;;;3.03;;
44832;SDS011;30569;51.252;9.830;2023-04-15T13:10:49;5.22;;;3.10;;
44832;SDS011;30569;51.252;9.830;2023-04-15T13:13:17;4.60;;;2.95;;
44832;SDS011;30569;51.252;9.830;2023-04-15T13:15:43;5.18;;;3.22;;
44832;SDS011;30569;51.252;9.830;2023-04-15T13:18:10;5.30;;;3.15;;
44832;SDS011;30569;51.252;9.830;2023-04-15T13:20:36;5.35;;;3.47;;
44832;SDS011;30569;51.252;9.830;2023-04-15T13:23:02;5.80;;;3.60;;
44832;SDS011;30569;51.252;9.830;2023-04-15T13:25:28;5.35;;;3.40;;
44832;SDS011;30569;51.252;9.830;2023-04-15T13:27:55;5.65;;;3.35;;
44832;SDS011;30569;51.252;9.830;2023-04-15T13:30:21;5.25;;;3.30;;
44832;SDS011;30569;51.252;9.830;2023-04-15T13:32:48;5.57;;;3.35;;
44832;SDS011;30569;51.252;9.830;2023-04-15T13:35:15;5.93;;;2.92;;
44832;SDS011;30569;51.252;9.830;2023-04-15T13:37:41;5.18;;;3.20;;
44832;SDS011;30569;51.252;9.830;2023-04-15T13:40:07;5.38;;;3.20;;
44832;SDS011;30569;51.252;9.830;2023-04-15T13:42:32;5.60;;;3.80;;
44832;SDS011;30569;51.252;9.830;2023-04-15T13:44:58;5.43;;;3.42;;
44832;SDS011;30569;51.252;9.830;2023-04-15T13:47:23;5.28;;;3.30;;
44832;SDS011;30569;51.252;9.830;2023-04-15T13:49:49;7.28;;;3.80;;
44832;SDS011;30569;51.252;9.830;2023-04-15T13:52:16;7.53;;;4.05;;
44832;SDS011;30569;51.252;9.830;2023-04-15T13:54:42;6.47;;;4.00;;
44832;SDS011;30569;51.252;9.830;2023-04-15T13:57:08;5.75;;;3.80;;
44832;SDS011;30569;51.252;9.830;2023-04-15T13:59:34;6.45;;;3.90;;
44832;SDS011;30569;51.252;9.830;2023-04-15T14:02:00;6.32;;;4.03;;
44832;SDS011;30569;51.252;9.830;2023-04-15T14:04:26;7.85;;;4.32;;
44832;SDS011;30569;51.252;9.830;2023-04-15T14:06:52;6.78;;;4.28;;
44832;SDS011;30569;51.252;9.830;2023-04-15T14:09:18;7.75;;;4.57;;
44832;SDS011;30569;51.252;9.830;2023-04-15T14:11:46;7.35;;;4.55;;
44832;SDS011;30569;51.252;9.830;2023-04-15T14:14:11;7.13;;;4.65;;
44832;SDS011;30569;51.252;9.830;2023-04-15T14:16:37;7.05;;;4.47;;
44832;SDS011;30569;51.252;9.830;2023-04-15T14:19:03;7.90;;;4.85;;
44832;SDS011;30569;51.252;9.830;2023-04-15T14:21:29;7.72;;;5.10;;
44832;SDS011;30569;51.252;9.830;2023-04-15T14:23:56;6.82;;;4.80;;
44832;SDS011;30569;51.252;9.830;2023-04-15T14:26:22;7.35;;;4.70;;
44832;SDS011;30569;51.252;9.830;2023-04-15T14:28:48;7.75;;;4.75;;
44832;SDS011;30569;51.252;9.830;2023-04-15T14:31:17;9.20;;;5.20;;
44832;SDS011;30569;51.252;9.830;2023-04-15T14:33:44;8.30;;;5.32;;
44832;SDS011;30569;51.252;9.830;2023-04-15T14:36:10;7.28;;;4.93;;
44832;SDS011;30569;51.252;9.830;2023-04-15T14:38:36;8.70;;;5.47;;
44832;SDS011;30569;51.252;9.830;2023-04-15T14:41:03;7.65;;;5.00;;
44832;SDS011;30569;51.252;9.830;2023-04-15T14:43:29;8.63;;;5.28;;
44832;SDS011;30569;51.252;9.830;2023-04-15T14:45:55;9.05;;;5.93;;
44832;SDS011;30569;51.252;9.830;2023-04-15T14:48:21;10.80;;;5.70;;
44832;SDS011;30569;51.252;9.830;2023-04-15T14:50:47;9.07;;;5.85;;